createdAt,value
2023-01-18T00:02:55.369Z,86.35
2023-01-18T00:06:01.589Z,86.10
2023-01-18T00:09:04.157Z,85.22
2023-01-18T00:12:06.828Z,85.21
2023-01-18T00:15:10.040Z,85.52
2023-01-18T00:18:12.483Z,85.94
2023-01-18T00:21:15.112Z,86.22
2023-01-18T00:24:17.443Z,86.18
2023-01-18T00:27:20.774Z,86.36
2023-01-18T00:30:26.875Z,85.85
2023-01-18T00:33:29.962Z,85.92
2023-01-18T00:36:32.992Z,85.69
2023-01-18T00:39:35.495Z,85.81
2023-01-18T00:42:56.794Z,85.48
2023-01-18T00:45:59.504Z,85.64
2023-01-18T00:49:01.958Z,85.12
2023-01-18T00:52:04.596Z,85.56
2023-01-18T00:55:07.876Z,85.86
2023-01-18T00:58:10.305Z,86.00
2023-01-18T01:01:13.892Z,85.08
2023-01-18T01:04:35.236Z,85.57
2023-01-18T01:07:37.670Z,85.99
2023-01-18T01:10:40.314Z,85.47
2023-01-18T01:14:02.428Z,86.56
2023-01-18T01:17:23.592Z,86.01
2023-01-18T01:20:45.285Z,86.72
2023-01-18T01:24:06.318Z,86.51
2023-01-18T01:27:10.606Z,86.64
2023-01-18T01:30:13.264Z,86.75
2023-01-18T01:33:17.905Z,86.86
2023-01-18T01:36:26.070Z,86.54
2023-01-18T01:39:28.970Z,86.36
2023-01-18T01:42:31.436Z,87.18
2023-01-18T01:45:34.148Z,86.64
2023-01-18T01:48:36.822Z,86.31
2023-01-18T01:51:44.851Z,86.18
2023-01-18T01:55:04.712Z,86.05
2023-01-18T01:58:13.109Z,86.02
2023-01-18T02:01:16.540Z,86.82
2023-01-18T02:04:19.296Z,86.66
2023-01-18T02:07:22.904Z,87.20
2023-01-18T02:10:25.412Z,87.11
2023-01-18T02:13:28.085Z,86.49
2023-01-18T02:16:55.249Z,86.06
2023-01-18T02:20:25.886Z,85.89
2023-01-18T02:23:53.844Z,85.78
2023-01-18T02:27:04.378Z,85.18
2023-01-18T02:30:35.153Z,85.13
2023-01-18T02:33:43.489Z,85.10
2023-01-18T02:36:45.789Z,85.69
2023-01-18T02:40:21.880Z,85.64
2023-01-18T02:43:44.371Z,85.61
2023-01-18T02:46:46.911Z,85.96
2023-01-18T02:49:49.654Z,86.18
2023-01-18T02:52:53.683Z,86.24
2023-01-18T02:55:59.425Z,85.97
2023-01-18T02:59:10.202Z,86.07
2023-01-18T03:02:19.286Z,86.75
2023-01-18T03:05:24.581Z,86.66
2023-01-18T03:08:54.119Z,86.53
2023-01-18T03:12:12.022Z,87.64
2023-01-18T03:15:27.540Z,88.15
2023-01-18T03:19:00.003Z,88.07
2023-01-18T03:22:03.123Z,87.37
2023-01-18T03:25:08.196Z,87.27
2023-01-18T03:28:39.615Z,87.97
2023-01-18T03:32:17.296Z,88.27
2023-01-18T03:35:26.777Z,87.76
2023-01-18T03:38:31.281Z,87.70
2023-01-18T03:41:38.909Z,87.25
2023-01-18T03:44:55.881Z,87.24
2023-01-18T03:47:59.389Z,87.28
2023-01-18T03:51:31.477Z,87.14
2023-01-18T03:54:40.514Z,86.99
2023-01-18T03:57:50.317Z,87.11
2023-01-18T04:00:53.511Z,87.33
2023-01-18T04:03:56.033Z,86.42
2023-01-18T04:06:58.529Z,86.73
2023-01-18T04:10:01.439Z,86.26
2023-01-18T04:13:03.895Z,86.49
2023-01-18T04:16:06.655Z,86.53
2023-01-18T04:19:09.178Z,86.46
2023-01-18T04:22:11.867Z,87.04
2023-01-18T04:25:15.214Z,87.07
2023-01-18T04:28:25.415Z,87.22
2023-01-18T04:31:28.353Z,87.27
2023-01-18T04:34:30.917Z,87.30
2023-01-18T04:37:34.149Z,87.49
2023-01-18T04:40:36.583Z,87.39
2023-01-18T04:43:38.968Z,87.35
2023-01-18T04:46:41.494Z,87.76
2023-01-18T04:49:44.684Z,87.59
2023-01-18T04:52:47.297Z,87.19
2023-01-18T04:55:50.161Z,87.55
2023-01-18T04:58:54.475Z,88.21
2023-01-18T05:01:57.211Z,88.21
2023-01-18T05:05:00.234Z,88.25
2023-01-18T05:08:03.174Z,89.05
2023-01-18T05:11:08.209Z,88.45
2023-01-18T05:14:10.661Z,88.58
2023-01-18T05:17:13.133Z,88.39
2023-01-18T05:20:15.806Z,88.62
2023-01-18T05:23:18.258Z,89.13
2023-01-18T05:26:23.360Z,90.34
2023-01-18T05:29:25.970Z,91.55
2023-01-18T05:32:28.560Z,91.94
2023-01-18T05:35:32.272Z,92.08
2023-01-18T05:38:34.852Z,92.96
2023-01-18T05:41:37.422Z,92.81
2023-01-18T05:44:39.765Z,92.90
2023-01-18T05:47:42.480Z,92.92
2023-01-18T05:50:47.034Z,92.56
2023-01-18T05:53:49.641Z,92.05
2023-01-18T05:56:52.082Z,92.30
2023-01-18T05:59:54.653Z,91.63
2023-01-18T06:02:57.313Z,91.58
2023-01-18T06:05:59.975Z,92.38
2023-01-18T06:09:03.471Z,92.31
2023-01-18T06:12:06.543Z,92.65
2023-01-18T06:15:09.920Z,93.07
2023-01-18T06:18:12.420Z,92.00
2023-01-18T06:21:15.371Z,91.99
2023-01-18T06:24:17.803Z,91.68
2023-01-18T06:27:20.230Z,91.26
2023-01-18T06:30:22.869Z,91.15
2023-01-18T06:33:25.319Z,91.09
2023-01-18T06:36:29.865Z,89.44
2023-01-18T06:39:32.446Z,88.23
2023-01-18T06:42:35.027Z,87.50
2023-01-18T06:45:37.636Z,89.01
2023-01-18T06:48:40.164Z,89.50
2023-01-18T06:51:47.259Z,91.45
2023-01-18T06:54:49.795Z,91.62
2023-01-18T06:57:52.496Z,89.72
2023-01-18T07:00:59.650Z,90.74
2023-01-18T07:04:02.241Z,90.80
2023-01-18T07:07:04.741Z,90.71
2023-01-18T07:10:08.056Z,90.02
2023-01-18T07:13:10.635Z,89.83
2023-01-18T07:16:17.560Z,88.76
2023-01-18T07:19:20.369Z,88.30
2023-01-18T07:22:23.514Z,88.73
2023-01-18T07:25:27.608Z,88.30
2023-01-18T07:28:31.058Z,87.78
2023-01-18T07:31:34.151Z,87.98
2023-01-18T07:34:37.034Z,87.29
2023-01-18T07:37:39.487Z,87.20
2023-01-18T07:40:42.583Z,87.02
2023-01-18T07:43:45.441Z,87.22
2023-01-18T07:46:47.891Z,87.47
2023-01-18T07:49:50.755Z,87.87
2023-01-18T07:52:53.271Z,88.23
2023-01-18T07:55:59.817Z,89.62
2023-01-18T07:59:02.661Z,89.01
2023-01-18T08:02:05.092Z,88.20
2023-01-18T08:05:09.965Z,87.79
2023-01-18T08:08:14.955Z,87.00
2023-01-18T08:11:17.801Z,86.42
2023-01-18T08:14:20.926Z,86.33
2023-01-18T08:17:23.421Z,85.94
2023-01-18T08:20:25.917Z,82.82
2023-01-18T08:23:28.627Z,82.28
2023-01-18T08:26:31.374Z,84.33
2023-01-18T08:29:33.813Z,84.74
2023-01-18T08:32:36.263Z,84.74
2023-01-18T08:35:47.324Z,84.79
2023-01-18T08:38:51.866Z,83.96
2023-01-18T08:41:54.452Z,83.35
2023-01-18T08:44:56.976Z,82.07
2023-01-18T08:48:02.610Z,82.13
2023-01-18T08:51:05.447Z,83.31
2023-01-18T08:54:08.496Z,83.04
2023-01-18T08:57:11.021Z,81.69
2023-01-18T09:00:14.428Z,80.81
2023-01-18T09:03:23.358Z,80.60
2023-01-18T09:06:30.033Z,80.78
2023-01-18T09:09:32.765Z,81.36
2023-01-18T09:12:35.733Z,81.32
2023-01-18T09:15:38.815Z,81.74
2023-01-18T09:18:41.290Z,82.44
2023-01-18T09:21:45.989Z,82.96
2023-01-18T09:24:48.634Z,83.05
2023-01-18T09:27:51.554Z,81.79
2023-01-18T09:30:54.090Z,81.46
2023-01-18T09:34:09.591Z,82.39
2023-01-18T09:37:20.505Z,82.59
2023-01-18T09:40:27.254Z,83.09
2023-01-18T09:43:39.179Z,82.08
2023-01-18T09:46:43.057Z,82.86
2023-01-18T09:49:55.085Z,81.39
2023-01-18T09:53:21.920Z,81.69
2023-01-18T09:56:39.464Z,81.97
2023-01-18T10:00:04.980Z,81.85
2023-01-18T10:03:15.294Z,81.69
2023-01-18T10:06:37.077Z,81.60
2023-01-18T10:09:44.371Z,81.80
2023-01-18T10:12:58.104Z,81.36
2023-01-18T10:16:03.263Z,81.49
2023-01-18T10:19:16.364Z,80.93
2023-01-18T10:22:33.999Z,80.74
2023-01-18T10:25:46.995Z,81.14
2023-01-18T10:29:01.249Z,81.13
2023-01-18T10:32:10.865Z,81.07
2023-01-18T10:35:29.778Z,79.52
2023-01-18T10:38:32.474Z,79.26
2023-01-18T10:41:40.743Z,78.50
2023-01-18T10:44:43.216Z,77.96
2023-01-18T10:47:50.345Z,72.41
2023-01-18T10:50:59.515Z,65.38
2023-01-18T10:54:22.254Z,67.61
2023-01-18T10:57:29.974Z,61.33
2023-01-18T11:00:36.003Z,60.52
2023-01-18T11:03:45.890Z,61.55
2023-01-18T11:07:03.185Z,61.03
2023-01-18T11:10:09.730Z,59.19
2023-01-18T11:13:32.499Z,68.34
2023-01-18T11:16:36.044Z,71.82
2023-01-18T11:19:39.443Z,73.90
2023-01-18T11:22:55.149Z,74.79
2023-01-18T11:26:17.321Z,75.66
2023-01-18T11:29:22.283Z,76.25
2023-01-18T11:32:27.556Z,76.85
2023-01-18T11:35:37.308Z,77.11
2023-01-18T11:38:41.583Z,68.51
2023-01-18T11:41:44.176Z,65.43
2023-01-18T11:44:55.455Z,68.04
2023-01-18T11:48:13.620Z,63.40
2023-01-18T11:51:24.961Z,64.92
2023-01-18T11:54:27.296Z,65.96
2023-01-18T11:57:29.788Z,65.05
2023-01-18T12:00:46.998Z,66.87
2023-01-18T12:03:59.042Z,67.23
2023-01-18T12:07:32.824Z,68.20
2023-01-18T12:11:02.525Z,66.94
2023-01-18T12:14:32.990Z,66.95
2023-01-18T12:17:46.181Z,64.50
2023-01-18T12:21:08.908Z,63.34
2023-01-18T12:24:24.621Z,63.37
2023-01-18T12:27:32.824Z,64.40
2023-01-18T12:30:50.841Z,64.37
2023-01-18T12:34:20.706Z,63.33
2023-01-18T12:38:01.094Z,61.59
2023-01-18T12:41:11.166Z,63.45
2023-01-18T12:44:32.126Z,62.79
2023-01-18T12:47:40.948Z,62.76
2023-01-18T12:50:47.014Z,56.55
2023-01-18T12:54:12.398Z,50.61
2023-01-18T12:57:17.444Z,50.97
2023-01-18T13:00:25.268Z,54.43
2023-01-18T13:03:39.336Z,58.85
2023-01-18T13:06:43.133Z,61.09
2023-01-18T13:09:50.622Z,60.91
2023-01-18T13:12:55.388Z,60.40
2023-01-18T13:16:16.936Z,59.73
2023-01-18T13:19:29.369Z,61.27
2023-01-18T13:22:43.749Z,61.29
2023-01-18T13:26:27.103Z,61.05
2023-01-18T13:29:30.486Z,59.85
2023-01-18T13:32:37.670Z,61.23
2023-01-18T13:35:51.047Z,60.62
2023-01-18T13:38:57.555Z,62.36
2023-01-18T13:42:10.032Z,64.01
2023-01-18T13:45:17.247Z,64.15
2023-01-18T13:48:41.580Z,64.09
2023-01-18T13:51:47.782Z,64.39
2023-01-18T13:55:01.116Z,65.52
2023-01-18T13:58:03.830Z,65.25
2023-01-18T14:01:18.339Z,64.20
2023-01-18T14:04:24.379Z,63.41
2023-01-18T14:07:27.539Z,63.68
2023-01-18T14:10:36.388Z,63.79
2023-01-18T14:13:44.608Z,65.84
2023-01-18T14:17:14.009Z,66.57
2023-01-18T14:21:05.212Z,67.37
2023-01-18T14:24:19.941Z,68.35
2023-01-18T14:27:25.496Z,69.34
2023-01-18T14:30:31.959Z,69.99
2023-01-18T14:33:41.338Z,70.68
2023-01-18T14:36:44.192Z,69.27
2023-01-18T14:39:47.676Z,69.32
2023-01-18T14:42:57.734Z,72.64
2023-01-18T14:46:05.619Z,70.67
2023-01-18T14:49:15.678Z,72.31
2023-01-18T14:52:18.851Z,74.60
2023-01-18T14:55:33.644Z,74.13
2023-01-18T14:58:44.686Z,73.91
2023-01-18T15:01:56.885Z,75.16
2023-01-18T15:05:17.185Z,75.59
2023-01-18T15:08:20.183Z,75.49
2023-01-18T15:11:24.466Z,74.36
2023-01-18T15:14:30.926Z,74.74
2023-01-18T15:17:35.972Z,75.61
2023-01-18T15:20:58.353Z,76.30
2023-01-18T15:24:12.475Z,77.69
2023-01-18T15:27:18.433Z,77.57
2023-01-18T15:30:23.430Z,78.81
2023-01-18T15:33:27.469Z,78.70
2023-01-18T15:36:29.950Z,78.76
2023-01-18T15:39:33.941Z,79.80
2023-01-18T15:42:42.785Z,79.89
2023-01-18T15:45:50.130Z,80.91
2023-01-18T15:48:56.573Z,81.31
2023-01-18T15:51:59.205Z,80.62
2023-01-18T15:55:07.114Z,80.88
2023-01-18T15:58:42.884Z,81.68
2023-01-18T16:01:49.505Z,81.02
2023-01-18T16:05:08.949Z,81.30
2023-01-18T16:08:22.650Z,81.57
2023-01-18T16:11:33.460Z,81.16
2023-01-18T16:14:38.475Z,81.16
2023-01-18T16:17:43.743Z,81.29
2023-01-18T16:20:46.716Z,81.30
2023-01-18T16:23:52.619Z,80.84
2023-01-18T16:26:57.059Z,80.81
2023-01-18T16:30:17.499Z,81.36
2023-01-18T16:33:21.714Z,81.43
2023-01-18T16:36:25.781Z,81.75
2023-01-18T16:39:30.491Z,81.75
2023-01-18T16:42:54.376Z,82.31
2023-01-18T16:45:59.139Z,81.43
2023-01-18T16:49:02.232Z,81.19
2023-01-18T16:52:08.456Z,81.17
2023-01-18T16:55:15.288Z,81.38
2023-01-18T16:58:19.274Z,81.51
2023-01-18T17:01:21.932Z,81.43
2023-01-18T17:04:26.770Z,81.33
2023-01-18T17:07:29.243Z,82.30
2023-01-18T17:10:43.831Z,81.90
2023-01-18T17:13:47.822Z,81.80
2023-01-18T17:16:51.052Z,82.53
2023-01-18T17:19:54.397Z,82.71
2023-01-18T17:22:57.641Z,82.95
2023-01-18T17:26:00.603Z,83.21
2023-01-18T17:29:04.261Z,82.29
2023-01-18T17:32:08.141Z,82.02
2023-01-18T17:35:10.931Z,82.04
2023-01-18T17:38:23.298Z,82.34
2023-01-18T17:41:29.091Z,82.44
2023-01-18T17:44:37.372Z,82.06
2023-01-18T17:47:42.698Z,81.55
2023-01-18T17:50:45.495Z,82.88
2023-01-18T17:53:48.205Z,83.44
2023-01-18T17:56:51.420Z,82.95
2023-01-18T17:59:55.617Z,82.89
2023-01-18T18:02:59.381Z,83.06
2023-01-18T18:06:03.923Z,82.56
2023-01-18T18:09:06.668Z,82.94
2023-01-18T18:12:12.576Z,83.28
2023-01-18T18:18:35.038Z,83.91
2023-01-18T18:21:37.697Z,83.98
2023-01-18T18:24:40.601Z,84.08
2023-01-18T18:27:46.501Z,84.66
2023-01-18T18:30:53.833Z,84.67
2023-01-18T18:33:56.522Z,85.20
2023-01-18T18:36:59.828Z,85.34
2023-01-18T18:43:24.575Z,85.22
2023-01-18T18:49:47.644Z,85.76
2023-01-18T18:52:50.492Z,86.21
2023-01-18T18:55:59.478Z,86.09
2023-01-18T18:59:02.198Z,86.03
2023-01-18T19:02:04.862Z,85.68
2023-01-18T19:05:08.939Z,85.77
2023-01-18T19:08:11.710Z,86.17
2023-01-18T19:11:15.591Z,86.00
2023-01-18T19:14:18.689Z,85.17
2023-01-18T19:17:29.682Z,84.34
2023-01-18T19:20:33.953Z,84.15
2023-01-18T19:23:36.725Z,84.06
2023-01-18T19:26:39.394Z,83.92
2023-01-18T19:29:42.023Z,83.65
2023-01-18T19:32:46.672Z,84.25
2023-01-18T19:35:49.386Z,84.09
2023-01-18T19:38:59.352Z,83.24
2023-01-18T19:42:02.844Z,83.67
2023-01-18T19:45:08.070Z,82.97
2023-01-18T19:48:11.055Z,82.77
2023-01-18T19:51:22.427Z,83.13
2023-01-18T19:54:25.525Z,83.66
2023-01-18T19:57:28.923Z,84.10
2023-01-18T20:00:31.770Z,83.88
2023-01-18T20:03:37.436Z,83.94
2023-01-18T20:06:42.302Z,84.33
2023-01-18T20:09:45.287Z,84.40
2023-01-18T20:12:49.383Z,84.40
2023-01-18T20:15:54.634Z,84.71
2023-01-18T20:18:57.398Z,84.45
2023-01-18T20:22:00.490Z,84.51
2023-01-18T20:25:04.375Z,84.41
2023-01-18T20:28:07.020Z,84.26
2023-01-18T20:31:10.325Z,84.74
2023-01-18T20:34:13.004Z,84.59
2023-01-18T20:37:16.428Z,84.99
2023-01-18T20:40:19.407Z,85.24
2023-01-18T20:43:22.110Z,85.22
2023-01-18T20:46:24.804Z,85.07
2023-01-18T20:49:37.581Z,85.11
2023-01-18T20:52:41.439Z,85.42
2023-01-18T20:55:44.060Z,85.19
2023-01-18T20:58:46.567Z,85.81
2023-01-18T21:01:49.657Z,85.54
2023-01-18T21:04:53.031Z,85.77
2023-01-18T21:07:55.548Z,86.14
2023-01-18T21:10:58.037Z,86.88
2023-01-18T21:14:00.890Z,87.50
2023-01-18T21:17:03.402Z,87.74
2023-01-18T21:20:06.201Z,87.41
2023-01-18T21:23:09.055Z,87.73
2023-01-18T21:26:12.725Z,88.01
2023-01-18T21:29:15.202Z,88.28
2023-01-18T21:32:17.789Z,88.10
2023-01-18T21:35:20.307Z,88.33
2023-01-18T21:38:23.356Z,88.85
2023-01-18T21:41:44.750Z,89.07
2023-01-18T21:45:06.075Z,89.29
2023-01-18T21:48:08.848Z,89.29
2023-01-18T21:51:30.003Z,89.53
2023-01-18T21:54:32.443Z,89.68
2023-01-18T21:57:36.358Z,89.51
2023-01-18T22:00:39.925Z,89.54
2023-01-18T22:03:43.165Z,89.60
2023-01-18T22:06:45.995Z,89.23
2023-01-18T22:10:03.118Z,89.49
2023-01-18T22:13:06.873Z,89.36
2023-01-18T22:16:09.573Z,89.44
2023-01-18T22:19:12.316Z,89.36
2023-01-18T22:22:15.046Z,89.41
2023-01-18T22:25:17.961Z,89.08
2023-01-18T22:28:20.668Z,89.80
2023-01-18T22:31:23.728Z,89.51
2023-01-18T22:34:26.165Z,89.58
2023-01-18T22:37:28.831Z,89.45
2023-01-18T22:40:32.269Z,89.12
2023-01-18T22:43:35.991Z,88.93
2023-01-18T22:46:38.560Z,89.28
2023-01-18T22:49:41.395Z,89.34
2023-01-18T22:52:43.930Z,89.87
2023-01-18T22:55:47.550Z,89.97
2023-01-18T22:58:51.145Z,89.96
2023-01-18T23:01:53.583Z,90.04
2023-01-18T23:04:56.352Z,90.13
2023-01-18T23:07:59.087Z,90.14
2023-01-18T23:11:01.749Z,90.07
2023-01-18T23:14:23.592Z,90.17
2023-01-18T23:17:42.240Z,90.29
2023-01-18T23:20:44.878Z,90.09
2023-01-18T23:23:48.135Z,90.19
2023-01-18T23:26:51.502Z,89.97
2023-01-18T23:29:57.273Z,89.51
2023-01-18T23:32:59.914Z,89.65
2023-01-18T23:36:02.686Z,89.40
2023-01-18T23:39:24.377Z,89.36
2023-01-18T23:42:45.488Z,89.53
2023-01-18T23:46:06.395Z,89.51
2023-01-18T23:49:27.223Z,89.59
2023-01-18T23:52:48.223Z,89.37
2023-01-18T23:55:52.848Z,89.42
2023-01-18T23:58:56.589Z,89.25
